TAF EGNM
AMD EGNM 090655Z 0906/1006 27012KT 9999 SCT025 TEMPO 0906/0911 6000 RA SHRA BKN008 BECMG 0914/0917 16010KT TEMPO 0917/0922 6000 RA BKN008 PROB30 TEMPO 0918/0920 3000 +RA BKN004 BECMG 0921/0924 29012KT TEMPO 0923/1006 30015G25KT 6000 SHRA=
METAR EGNM
WC EGNM
WS EGNM
WV EGNM